PWSweather.com
Personal Weather Stations
Station Observations
DW6359
Southwest Cambria, Cambria, WI 53923

Southwest CambriaCambria, WI 53923

Lat: 43.541194, Lon: -89.11275

Elevation: 945

Station Type: Davis Vantage Pro2

http://home.centurytel.net/weathercambria/wxcambria.html

High Low Average
Temperature 16.8°F-8.4°C -1.1°F-18.4°C 8.5°F-13.1°C
Dew Point 8.1°F-13.3°C -7.6°F-22.0°C -3.1°F-19.5°C
Winds 11.0 mph 17.7 kmh Calm Calm 4.0 mph WSW6.4 kmh WSW
Wind Gusts 13.0 mph20.9 kmh -- 2.0 mph3.2 kmh
Humidity 75% 42% 59%
Pressure 30.68 in1038.9 mb 30.36 in1028.1 mb -
Precipitation 0.00 in0.0 mm - -
Hour Temp Dew Point Humidity Winds Wind Gusts Pressure Precip Precip Rate Daily Precip Total
12:00 AM 2.6°F-16.3°C -6.4°F-21.3°C 65% 5.0 mph NW8.0 kmh NW 9.0 mph14.5 kmh 30.56 in1034.9 mb 0.00 in0.0 mm 0.00 in0.0 mm 0.00 in0.0 mm
12:05 AM 2.6°F-16.3°C -6.4°F-21.3°C 65% 5.0 mph W8.0 kmh W 9.0 mph14.5 kmh 30.56 in1034.9 mb 0.00 in0.0 mm 0.00 in0.0 mm 0.00 in0.0 mm
12:10 AM 2.5°F-16.4°C -6.5°F-21.4°C 65% 5.0 mph NW8.0 kmh NW -- 30.57 in1035.2 mb 0.00 in0.0 mm 0.00 in0.0 mm 0.00 in0.0 mm
12:15 AM 2.5°F-16.4°C -6.5°F-21.4°C 65% 3.0 mph WNW4.8 kmh WNW -- 30.57 in1035.2 mb 0.00 in0.0 mm 0.00 in0.0 mm 0.00 in0.0 mm
12:20 AM 2.6°F-16.3°C -6.4°F-21.3°C 65% 4.0 mph WNW6.4 kmh WNW -- 30.57 in1035.2 mb 0.00 in0.0 mm 0.00 in0.0 mm 0.00 in0.0 mm
12:25 AM 2.6°F-16.3°C -6.4°F-21.3°C 65% 10.0 mph WNW16.1 kmh WNW -- 30.57 in1035.2 mb 0.00 in0.0 mm 0.00 in0.0 mm 0.00 in0.0 mm
12:30 AM 2.6°F-16.3°C -6.4°F-21.3°C 65% 4.0 mph WNW6.4 kmh WNW -- 30.57 in1035.2 mb 0.00 in0.0 mm 0.00 in0.0 mm 0.00 in0.0 mm
12:35 AM 2.5°F-16.4°C -6.2°F-21.2°C 66% 7.0 mph W11.3 kmh W -- 30.57 in1035.2 mb 0.00 in0.0 mm 0.00 in0.0 mm 0.00 in0.0 mm
12:40 AM 2.4°F-16.4°C -6.3°F-21.3°C 66% 3.0 mph W4.8 kmh W -- 30.57 in1035.2 mb 0.00 in0.0 mm 0.00 in0.0 mm 0.00 in0.0 mm
12:45 AM 2.4°F-16.4°C -6.3°F-21.3°C 66% 6.0 mph W9.7 kmh W -- 30.57 in1035.2 mb 0.00 in0.0 mm 0.00 in0.0 mm 0.00 in0.0 mm
12:50 AM 2.4°F-16.4°C -6.3°F-21.3°C 66% 4.0 mph W6.4 kmh W 11.0 mph17.7 kmh 30.57 in1035.2 mb 0.00 in0.0 mm 0.00 in0.0 mm 0.00 in0.0 mm
12:55 AM 2.4°F-16.4°C -6.3°F-21.3°C 66% 8.0 mph WNW12.9 kmh WNW 11.0 mph17.7 kmh 30.57 in1035.2 mb 0.00 in0.0 mm 0.00 in0.0 mm 0.00 in0.0 mm
01:00 AM 2.4°F-16.4°C -6.3°F-21.3°C 66% 8.0 mph NW12.9 kmh NW -- 30.57 in1035.2 mb 0.00 in0.0 mm 0.00 in0.0 mm 0.00 in0.0 mm
01:05 AM 2.4°F-16.4°C -6.3°F-21.3°C 66% 6.0 mph WNW9.7 kmh WNW -- 30.58 in1035.6 mb 0.00 in0.0 mm 0.00 in0.0 mm 0.00 in0.0 mm
01:10 AM 2.4°F-16.4°C -6.3°F-21.3°C 66% 6.0 mph WNW9.7 kmh WNW -- 30.58 in1035.6 mb 0.00 in0.0 mm 0.00 in0.0 mm 0.00 in0.0 mm
01:15 AM 2.4°F-16.4°C -6.3°F-21.3°C 66% 8.0 mph NW12.9 kmh NW -- 30.58 in1035.6 mb 0.00 in0.0 mm 0.00 in0.0 mm 0.00 in0.0 mm
01:20 AM 2.4°F-16.4°C -6.3°F-21.3°C 66% 5.0 mph W8.0 kmh W -- 30.58 in1035.6 mb 0.00 in0.0 mm 0.00 in0.0 mm 0.00 in0.0 mm
01:25 AM 2.3°F-16.5°C -6.1°F-21.2°C 67% 5.0 mph WNW8.0 kmh WNW -- 30.58 in1035.6 mb 0.00 in0.0 mm 0.00 in0.0 mm 0.00 in0.0 mm
01:30 AM 2.3°F-16.5°C -6.1°F-21.2°C 67% 5.0 mph NW8.0 kmh NW -- 30.58 in1035.6 mb 0.00 in0.0 mm 0.00 in0.0 mm 0.00 in0.0 mm
01:35 AM 2.3°F-16.5°C -6.1°F-21.2°C 67% 8.0 mph NW12.9 kmh NW -- 30.58 in1035.6 mb 0.00 in0.0 mm 0.00 in0.0 mm 0.00 in0.0 mm
01:40 AM 2.3°F-16.5°C -6.1°F-21.2°C 67% 6.0 mph NW9.7 kmh NW 13.0 mph20.9 kmh 30.58 in1035.6 mb 0.00 in0.0 mm 0.00 in0.0 mm 0.00 in0.0 mm
01:45 AM 2.2°F-16.6°C -6.2°F-21.2°C 67% 8.0 mph NW12.9 kmh NW 13.0 mph20.9 kmh 30.58 in1035.6 mb 0.00 in0.0 mm 0.00 in0.0 mm 0.00 in0.0 mm
01:50 AM 2.2°F-16.6°C -6.2°F-21.2°C 67% 5.0 mph WNW8.0 kmh WNW -- 30.58 in1035.6 mb 0.00 in0.0 mm 0.00 in0.0 mm 0.00 in0.0 mm
01:55 AM 2.2°F-16.6°C -6.2°F-21.2°C 67% 7.0 mph NW11.3 kmh NW -- 30.58 in1035.6 mb 0.00 in0.0 mm 0.00 in0.0 mm 0.00 in0.0 mm
02:00 AM 2.2°F-16.6°C -6.2°F-21.2°C 67% 7.0 mph WNW11.3 kmh WNW -- 30.58 in1035.6 mb 0.00 in0.0 mm 0.00 in0.0 mm 0.00 in0.0 mm
02:05 AM 2.1°F-16.6°C -6.3°F-21.3°C 67% 5.0 mph WNW8.0 kmh WNW -- 30.58 in1035.6 mb 0.00 in0.0 mm 0.00 in0.0 mm 0.00 in0.0 mm
02:10 AM 2.1°F-16.6°C -6.3°F-21.3°C 67% 5.0 mph W8.0 kmh W -- 30.58 in1035.6 mb 0.00 in0.0 mm 0.00 in0.0 mm 0.00 in0.0 mm
02:15 AM 2.0°F-16.7°C -6.4°F-21.3°C 67% 3.0 mph W4.8 kmh W -- 30.59 in1035.9 mb 0.00 in0.0 mm 0.00 in0.0 mm 0.00 in0.0 mm
02:20 AM 1.8°F-16.8°C -6.3°F-21.3°C 68% 3.0 mph W4.8 kmh W -- 30.59 in1035.9 mb 0.00 in0.0 mm 0.00 in0.0 mm 0.00 in0.0 mm
02:25 AM 1.7°F-16.8°C -6.4°F-21.3°C 68% 5.0 mph WNW8.0 kmh WNW -- 30.59 in1035.9 mb 0.00 in0.0 mm 0.00 in0.0 mm 0.00 in0.0 mm
02:30 AM 1.7°F-16.8°C -6.4°F-21.3°C 68% 7.0 mph NW11.3 kmh NW 9.0 mph14.5 kmh 30.59 in1035.9 mb 0.00 in0.0 mm 0.00 in0.0 mm 0.00 in0.0 mm
02:35 AM 1.7°F-16.8°C -6.4°F-21.3°C 68% 5.0 mph NW8.0 kmh NW 9.0 mph14.5 kmh 30.59 in1035.9 mb 0.00 in0.0 mm 0.00 in0.0 mm 0.00 in0.0 mm
02:40 AM 1.7°F-16.8°C -6.4°F-21.3°C 68% 2.0 mph W3.2 kmh W -- 30.59 in1035.9 mb 0.00 in0.0 mm 0.00 in0.0 mm 0.00 in0.0 mm
02:45 AM 1.7°F-16.8°C -6.4°F-21.3°C 68% 6.0 mph WNW9.7 kmh WNW -- 30.60 in1036.2 mb 0.00 in0.0 mm 0.00 in0.0 mm 0.00 in0.0 mm
02:50 AM 1.7°F-16.8°C -6.4°F-21.3°C 68% 2.0 mph WNW3.2 kmh WNW -- 30.60 in1036.2 mb 0.00 in0.0 mm 0.00 in0.0 mm 0.00 in0.0 mm
02:55 AM 1.6°F-16.9°C -6.5°F-21.4°C 68% 4.0 mph W6.4 kmh W -- 30.60 in1036.2 mb 0.00 in0.0 mm 0.00 in0.0 mm 0.00 in0.0 mm
03:00 AM 1.5°F-16.9°C -6.3°F-21.3°C 69% 7.0 mph NW11.3 kmh NW -- 30.60 in1036.2 mb 0.00 in0.0 mm 0.00 in0.0 mm 0.00 in0.0 mm
03:05 AM 1.5°F-16.9°C -6.3°F-21.3°C 69% 6.0 mph W9.7 kmh W -- 30.61 in1036.6 mb 0.00 in0.0 mm 0.00 in0.0 mm 0.00 in0.0 mm
03:10 AM 1.5°F-16.9°C -6.3°F-21.3°C 69% 4.0 mph W6.4 kmh W -- 30.61 in1036.6 mb 0.00 in0.0 mm 0.00 in0.0 mm 0.00 in0.0 mm
03:15 AM 1.5°F-16.9°C -6.3°F-21.3°C 69% 4.0 mph W6.4 kmh W -- 30.61 in1036.6 mb 0.00 in0.0 mm 0.00 in0.0 mm 0.00 in0.0 mm
03:20 AM 1.5°F-16.9°C -6.3°F-21.3°C 69% 2.0 mph WNW3.2 kmh WNW 8.0 mph12.9 kmh 30.61 in1036.6 mb 0.00 in0.0 mm 0.00 in0.0 mm 0.00 in0.0 mm
03:25 AM 1.5°F-16.9°C -6.3°F-21.3°C 69% 5.0 mph WSW8.0 kmh WSW 8.0 mph12.9 kmh 30.61 in1036.6 mb 0.00 in0.0 mm 0.00 in0.0 mm 0.00 in0.0 mm
03:30 AM 1.4°F-17.0°C -6.4°F-21.3°C 69% 6.0 mph WNW9.7 kmh WNW -- 30.61 in1036.6 mb 0.00 in0.0 mm 0.00 in0.0 mm 0.00 in0.0 mm
03:35 AM 1.4°F-17.0°C -6.4°F-21.3°C 69% 3.0 mph WSW4.8 kmh WSW -- 30.61 in1036.6 mb 0.00 in0.0 mm 0.00 in0.0 mm 0.00 in0.0 mm
03:40 AM 1.4°F-17.0°C -6.4°F-21.3°C 69% 3.0 mph NW4.8 kmh NW -- 30.61 in1036.6 mb 0.00 in0.0 mm 0.00 in0.0 mm 0.00 in0.0 mm
03:45 AM 1.3°F-17.1°C -6.5°F-21.4°C 69% 5.0 mph WNW8.0 kmh WNW -- 30.61 in1036.6 mb 0.00 in0.0 mm 0.00 in0.0 mm 0.00 in0.0 mm
03:50 AM 1.3°F-17.1°C -6.5°F-21.4°C 69% 8.0 mph W12.9 kmh W -- 30.60 in1036.2 mb 0.00 in0.0 mm 0.00 in0.0 mm 0.00 in0.0 mm
03:55 AM 1.3°F-17.1°C -6.5°F-21.4°C 69% 6.0 mph WNW9.7 kmh WNW -- 30.61 in1036.6 mb 0.00 in0.0 mm 0.00 in0.0 mm 0.00 in0.0 mm
04:00 AM 1.3°F-17.1°C -6.5°F-21.4°C 69% 7.0 mph WNW11.3 kmh WNW -- 30.61 in1036.6 mb 0.00 in0.0 mm 0.00 in0.0 mm 0.00 in0.0 mm
04:05 AM 1.3°F-17.1°C -6.5°F-21.4°C 69% 6.0 mph W9.7 kmh W -- 30.61 in1036.6 mb 0.00 in0.0 mm 0.00 in0.0 mm 0.00 in0.0 mm
04:10 AM 1.3°F-17.1°C -6.5°F-21.4°C 69% 3.0 mph W4.8 kmh W 7.0 mph11.3 kmh 30.61 in1036.6 mb 0.00 in0.0 mm 0.00 in0.0 mm 0.00 in0.0 mm
04:15 AM 1.2°F-17.1°C -6.6°F-21.4°C 69% 5.0 mph W8.0 kmh W 7.0 mph11.3 kmh 30.61 in1036.6 mb 0.00 in0.0 mm 0.00 in0.0 mm 0.00 in0.0 mm
04:20 AM 1.3°F-17.1°C -6.5°F-21.4°C 69% 5.0 mph WNW8.0 kmh WNW -- 30.61 in1036.6 mb 0.00 in0.0 mm 0.00 in0.0 mm 0.00 in0.0 mm
04:25 AM 1.2°F-17.1°C -6.9°F-21.6°C 68% 3.0 mph WNW4.8 kmh WNW -- 30.61 in1036.6 mb 0.00 in0.0 mm 0.00 in0.0 mm 0.00 in0.0 mm
04:30 AM 1.1°F-17.2°C -6.7°F-21.5°C 69% 3.0 mph W4.8 kmh W -- 30.61 in1036.6 mb 0.00 in0.0 mm 0.00 in0.0 mm 0.00 in0.0 mm
04:35 AM 1.1°F-17.2°C -6.7°F-21.5°C 69% 4.0 mph W6.4 kmh W -- 30.61 in1036.6 mb 0.00 in0.0 mm 0.00 in0.0 mm 0.00 in0.0 mm
04:40 AM 1.1°F-17.2°C -6.7°F-21.5°C 69% 2.0 mph W3.2 kmh W -- 30.61 in1036.6 mb 0.00 in0.0 mm 0.00 in0.0 mm 0.00 in0.0 mm
04:45 AM 1.0°F-17.2°C -6.8°F-21.6°C 69% 2.0 mph W3.2 kmh W -- 30.61 in1036.6 mb 0.00 in0.0 mm 0.00 in0.0 mm 0.00 in0.0 mm
04:50 AM 0.9°F-17.3°C -6.9°F-21.6°C 69% 5.0 mph W8.0 kmh W -- 30.62 in1036.9 mb 0.00 in0.0 mm 0.00 in0.0 mm 0.00 in0.0 mm
04:55 AM 1.0°F-17.2°C -6.8°F-21.6°C 69% 4.0 mph WNW6.4 kmh WNW -- 30.62 in1036.9 mb 0.00 in0.0 mm 0.00 in0.0 mm 0.00 in0.0 mm
05:00 AM 1.0°F-17.2°C -6.8°F-21.6°C 69% 7.0 mph WNW11.3 kmh WNW 10.0 mph16.1 kmh 30.61 in1036.6 mb 0.00 in0.0 mm 0.00 in0.0 mm 0.00 in0.0 mm
05:05 AM 1.0°F-17.2°C -6.8°F-21.6°C 69% 5.0 mph WNW8.0 kmh WNW 10.0 mph16.1 kmh 30.62 in1036.9 mb 0.00 in0.0 mm 0.00 in0.0 mm 0.00 in0.0 mm
05:10 AM 1.0°F-17.2°C -6.8°F-21.6°C 69% 4.0 mph W6.4 kmh W -- 30.62 in1036.9 mb 0.00 in0.0 mm 0.00 in0.0 mm 0.00 in0.0 mm
05:15 AM 0.9°F-17.3°C -6.9°F-21.6°C 69% 2.0 mph WNW3.2 kmh WNW -- 30.62 in1036.9 mb 0.00 in0.0 mm 0.00 in0.0 mm 0.00 in0.0 mm
05:20 AM 0.8°F-17.3°C -6.9°F-21.6°C 69% 3.0 mph WSW4.8 kmh WSW -- 30.62 in1036.9 mb 0.00 in0.0 mm 0.00 in0.0 mm 0.00 in0.0 mm
05:25 AM 0.8°F-17.3°C -6.7°F-21.5°C 70% 6.0 mph W9.7 kmh W -- 30.62 in1036.9 mb 0.00 in0.0 mm 0.00 in0.0 mm 0.00 in0.0 mm
05:30 AM 0.8°F-17.3°C -6.7°F-21.5°C 70% 3.0 mph WSW4.8 kmh WSW -- 30.62 in1036.9 mb 0.00 in0.0 mm 0.00 in0.0 mm 0.00 in0.0 mm
05:35 AM 0.7°F-17.4°C -7.0°F-21.7°C 69% 5.0 mph WNW8.0 kmh WNW -- 30.62 in1036.9 mb 0.00 in0.0 mm 0.00 in0.0 mm 0.00 in0.0 mm
05:40 AM 0.7°F-17.4°C -7.0°F-21.7°C 69% 9.0 mph WNW14.5 kmh WNW -- 30.62 in1036.9 mb 0.00 in0.0 mm 0.00 in0.0 mm 0.00 in0.0 mm
05:45 AM 0.7°F-17.4°C -7.0°F-21.7°C 69% 5.0 mph WSW8.0 kmh WSW -- 30.62 in1036.9 mb 0.00 in0.0 mm 0.00 in0.0 mm 0.00 in0.0 mm
05:50 AM 0.6°F-17.4°C -7.1°F-21.7°C 69% 5.0 mph NW8.0 kmh NW 12.0 mph19.3 kmh 30.62 in1036.9 mb 0.00 in0.0 mm 0.00 in0.0 mm 0.00 in0.0 mm
05:55 AM 0.6°F-17.4°C -7.1°F-21.7°C 69% 3.0 mph WNW4.8 kmh WNW 12.0 mph19.3 kmh 30.62 in1036.9 mb 0.00 in0.0 mm 0.00 in0.0 mm 0.00 in0.0 mm
06:00 AM 0.5°F-17.5°C -7.2°F-21.8°C 69% 3.0 mph W4.8 kmh W -- 30.63 in1037.3 mb 0.00 in0.0 mm 0.00 in0.0 mm 0.00 in0.0 mm
06:05 AM 0.4°F-17.6°C -7.0°F-21.7°C 70% 2.0 mph W3.2 kmh W -- 30.63 in1037.3 mb 0.00 in0.0 mm 0.00 in0.0 mm 0.00 in0.0 mm
06:10 AM 0.4°F-17.6°C -7.0°F-21.7°C 70% 4.0 mph W6.4 kmh W -- 30.63 in1037.3 mb 0.00 in0.0 mm 0.00 in0.0 mm 0.00 in0.0 mm
06:15 AM 0.3°F-17.6°C -7.1°F-21.7°C 70% 3.0 mph WSW4.8 kmh WSW -- 30.64 in1037.6 mb 0.00 in0.0 mm 0.00 in0.0 mm 0.00 in0.0 mm
06:20 AM 0.2°F-17.7°C -7.2°F-21.8°C 70% 5.0 mph WNW8.0 kmh WNW -- 30.64 in1037.6 mb 0.00 in0.0 mm 0.00 in0.0 mm 0.00 in0.0 mm
06:25 AM 0.2°F-17.7°C -7.2°F-21.8°C 70% 7.0 mph W11.3 kmh W -- 30.63 in1037.3 mb 0.00 in0.0 mm 0.00 in0.0 mm 0.00 in0.0 mm
06:30 AM 0.2°F-17.7°C -7.2°F-21.8°C 70% 4.0 mph WNW6.4 kmh WNW -- 30.63 in1037.3 mb 0.00 in0.0 mm 0.00 in0.0 mm 0.00 in0.0 mm
06:35 AM 0.1°F-17.7°C -7.3°F-21.8°C 70% 5.0 mph WNW8.0 kmh WNW -- 30.63 in1037.3 mb 0.00 in0.0 mm 0.00 in0.0 mm 0.00 in0.0 mm
06:40 AM 0.1°F-17.7°C -7.3°F-21.8°C 70% 4.0 mph W6.4 kmh W 11.0 mph17.7 kmh 30.63 in1037.3 mb 0.00 in0.0 mm 0.00 in0.0 mm 0.00 in0.0 mm
06:45 AM 0.0°F-17.8°C -7.4°F-21.9°C 70% 11.0 mph W17.7 kmh W 11.0 mph17.7 kmh 30.63 in1037.3 mb 0.00 in0.0 mm 0.00 in0.0 mm 0.00 in0.0 mm
06:50 AM -0.1°F-17.8°C -7.5°F-21.9°C 70% 6.0 mph W9.7 kmh W -- 30.63 in1037.3 mb 0.00 in0.0 mm 0.00 in0.0 mm 0.00 in0.0 mm
06:55 AM -0.1°F-17.8°C -7.2°F-21.8°C 71% 4.0 mph NW6.4 kmh NW -- 30.64 in1037.6 mb 0.00 in0.0 mm 0.00 in0.0 mm 0.00 in0.0 mm
07:00 AM -0.2°F-17.9°C -7.3°F-21.8°C 71% 4.0 mph WSW6.4 kmh WSW -- 30.64 in1037.6 mb 0.00 in0.0 mm 0.00 in0.0 mm 0.00 in0.0 mm
07:05 AM -0.3°F-17.9°C -7.4°F-21.9°C 71% 5.0 mph WSW8.0 kmh WSW -- 30.64 in1037.6 mb 0.00 in0.0 mm 0.00 in0.0 mm 0.00 in0.0 mm
07:10 AM -0.4°F-18.0°C -7.2°F-21.8°C 72% 6.0 mph WNW9.7 kmh WNW -- 30.64 in1037.6 mb 0.00 in0.0 mm 0.00 in0.0 mm 0.00 in0.0 mm
07:15 AM -0.4°F-18.0°C -7.2°F-21.8°C 72% 2.0 mph WSW3.2 kmh WSW -- 30.64 in1037.6 mb 0.00 in0.0 mm 0.00 in0.0 mm 0.00 in0.0 mm
07:20 AM -0.4°F-18.0°C -7.2°F-21.8°C 72% 5.0 mph W8.0 kmh W -- 30.64 in1037.6 mb 0.00 in0.0 mm 0.00 in0.0 mm 0.00 in0.0 mm
07:25 AM -0.5°F-18.1°C -7.3°F-21.8°C 72% 4.0 mph WSW6.4 kmh WSW -- 30.64 in1037.6 mb 0.00 in0.0 mm 0.00 in0.0 mm 0.00 in0.0 mm
07:30 AM -0.6°F-18.1°C -7.4°F-21.9°C 72% 2.0 mph WSW3.2 kmh WSW 7.0 mph11.3 kmh 30.64 in1037.6 mb 0.00 in0.0 mm 0.00 in0.0 mm 0.00 in0.0 mm
07:35 AM -0.8°F-18.2°C -7.6°F-22.0°C 72% 3.0 mph WSW4.8 kmh WSW 7.0 mph11.3 kmh 30.64 in1037.6 mb 0.00 in0.0 mm 0.00 in0.0 mm 0.00 in0.0 mm
07:40 AM -1.0°F-18.3°C -7.5°F-21.9°C 73% 4.0 mph W6.4 kmh W -- 30.65 in1037.9 mb 0.00 in0.0 mm 0.00 in0.0 mm 0.00 in0.0 mm
07:45 AM -1.0°F-18.3°C -7.3°F-21.8°C 74% 2.0 mph W3.2 kmh W -- 30.65 in1037.9 mb 0.00 in0.0 mm 0.00 in0.0 mm 0.00 in0.0 mm
07:50 AM -1.0°F-18.3°C -7.3°F-21.8°C 74% 4.0 mph W6.4 kmh W -- 30.64 in1037.6 mb 0.00 in0.0 mm 0.00 in0.0 mm 0.00 in0.0 mm
07:55 AM -1.0°F-18.3°C -7.3°F-21.8°C 74% 4.0 mph W6.4 kmh W -- 30.64 in1037.6 mb 0.00 in0.0 mm 0.00 in0.0 mm 0.00 in0.0 mm
08:00 AM -1.0°F-18.3°C -7.3°F-21.8°C 74% 6.0 mph W9.7 kmh W -- 30.65 in1037.9 mb 0.00 in0.0 mm 0.00 in0.0 mm 0.00 in0.0 mm
08:05 AM -1.0°F-18.3°C -7.3°F-21.8°C 74% 4.0 mph W6.4 kmh W -- 30.65 in1037.9 mb 0.00 in0.0 mm 0.00 in0.0 mm 0.00 in0.0 mm
08:10 AM -1.0°F-18.3°C -7.3°F-21.8°C 74% 3.0 mph W4.8 kmh W -- 30.65 in1037.9 mb 0.00 in0.0 mm 0.00 in0.0 mm 0.00 in0.0 mm
08:15 AM -0.9°F-18.3°C -7.2°F-21.8°C 74% 3.0 mph W4.8 kmh W -- 30.65 in1037.9 mb 0.00 in0.0 mm 0.00 in0.0 mm 0.00 in0.0 mm
08:20 AM -1.0°F-18.3°C -7.3°F-21.8°C 74% 3.0 mph W4.8 kmh W 7.0 mph11.3 kmh 30.65 in1037.9 mb 0.00 in0.0 mm 0.00 in0.0 mm 0.00 in0.0 mm
08:25 AM -1.0°F-18.3°C -7.3°F-21.8°C 74% 5.0 mph W8.0 kmh W 7.0 mph11.3 kmh 30.65 in1037.9 mb 0.00 in0.0 mm 0.00 in0.0 mm 0.00 in0.0 mm
08:30 AM -1.1°F-18.4°C -7.3°F-21.8°C 74% 4.0 mph W6.4 kmh W -- 30.65 in1037.9 mb 0.00 in0.0 mm 0.00 in0.0 mm 0.00 in0.0 mm
08:35 AM -1.0°F-18.3°C -7.3°F-21.8°C 74% 5.0 mph WNW8.0 kmh WNW -- 30.66 in1038.3 mb 0.00 in0.0 mm 0.00 in0.0 mm 0.00 in0.0 mm
08:40 AM -0.9°F-18.3°C -6.9°F-21.6°C 75% 4.0 mph W6.4 kmh W -- 30.66 in1038.3 mb 0.00 in0.0 mm 0.00 in0.0 mm 0.00 in0.0 mm
08:45 AM -0.7°F-18.2°C -7.0°F-21.7°C 74% 3.0 mph WNW4.8 kmh WNW -- 30.66 in1038.3 mb 0.00 in0.0 mm 0.00 in0.0 mm 0.00 in0.0 mm
08:50 AM -0.5°F-18.1°C -6.8°F-21.6°C 74% 6.0 mph W9.7 kmh W -- 30.66 in1038.3 mb 0.00 in0.0 mm 0.00 in0.0 mm 0.00 in0.0 mm
08:55 AM -0.4°F-18.0°C -6.7°F-21.5°C 74% 3.0 mph W4.8 kmh W -- 30.67 in1038.6 mb 0.00 in0.0 mm 0.00 in0.0 mm 0.00 in0.0 mm
09:00 AM -0.3°F-17.9°C -6.9°F-21.6°C 73% 4.0 mph W6.4 kmh W -- 30.67 in1038.6 mb 0.00 in0.0 mm 0.00 in0.0 mm 0.00 in0.0 mm
09:05 AM -0.1°F-17.8°C -6.7°F-21.5°C 73% 6.0 mph WSW9.7 kmh WSW -- 30.67 in1038.6 mb 0.00 in0.0 mm 0.00 in0.0 mm 0.00 in0.0 mm
09:10 AM -0.1°F-17.8°C -6.9°F-21.6°C 72% 6.0 mph W9.7 kmh W 10.0 mph16.1 kmh 30.67 in1038.6 mb 0.00 in0.0 mm 0.00 in0.0 mm 0.00 in0.0 mm
09:15 AM 0.1°F-17.7°C -6.7°F-21.5°C 72% 5.0 mph WNW8.0 kmh WNW 10.0 mph16.1 kmh 30.67 in1038.6 mb 0.00 in0.0 mm 0.00 in0.0 mm 0.00 in0.0 mm
09:20 AM 0.2°F-17.7°C -6.7°F-21.5°C 72% 4.0 mph NW6.4 kmh NW -- 30.67 in1038.6 mb 0.00 in0.0 mm 0.00 in0.0 mm 0.00 in0.0 mm
09:25 AM 0.5°F-17.5°C -6.4°F-21.3°C 72% 7.0 mph NW11.3 kmh NW -- 30.67 in1038.6 mb 0.00 in0.0 mm 0.00 in0.0 mm 0.00 in0.0 mm
09:30 AM 0.7°F-17.4°C -6.5°F-21.4°C 71% 9.0 mph WNW14.5 kmh WNW -- 30.67 in1038.6 mb 0.00 in0.0 mm 0.00 in0.0 mm 0.00 in0.0 mm
09:35 AM 0.9°F-17.3°C -6.3°F-21.3°C 71% 10.0 mph WNW16.1 kmh WNW -- 30.67 in1038.6 mb 0.00 in0.0 mm 0.00 in0.0 mm 0.00 in0.0 mm
09:40 AM 0.8°F-17.3°C -6.7°F-21.5°C 70% 8.0 mph WNW12.9 kmh WNW -- 30.67 in1038.6 mb 0.00 in0.0 mm 0.00 in0.0 mm 0.00 in0.0 mm
09:45 AM 0.9°F-17.3°C -6.6°F-21.4°C 70% 8.0 mph NW12.9 kmh NW -- 30.67 in1038.6 mb 0.00 in0.0 mm 0.00 in0.0 mm 0.00 in0.0 mm
09:50 AM 1.0°F-17.2°C -6.5°F-21.4°C 70% 5.0 mph W8.0 kmh W -- 30.66 in1038.3 mb 0.00 in0.0 mm 0.00 in0.0 mm 0.00 in0.0 mm
09:55 AM 1.1°F-17.2°C -6.7°F-21.5°C 69% 3.0 mph W4.8 kmh W -- 30.66 in1038.3 mb 0.00 in0.0 mm 0.00 in0.0 mm 0.00 in0.0 mm
10:00 AM 1.3°F-17.1°C -6.5°F-21.4°C 69% 2.0 mph W3.2 kmh W 11.0 mph17.7 kmh 30.66 in1038.3 mb 0.00 in0.0 mm 0.00 in0.0 mm 0.00 in0.0 mm
10:05 AM 1.7°F-16.8°C -6.1°F-21.2°C 69% 3.0 mph W4.8 kmh W 11.0 mph17.7 kmh 30.67 in1038.6 mb 0.00 in0.0 mm 0.00 in0.0 mm 0.00 in0.0 mm
10:10 AM 1.8°F-16.8°C -6.0°F-21.1°C 69% 4.0 mph WSW6.4 kmh WSW -- 30.67 in1038.6 mb 0.00 in0.0 mm 0.00 in0.0 mm 0.00 in0.0 mm
10:15 AM 2.1°F-16.6°C -5.7°F-20.9°C 69% 8.0 mph WSW12.9 kmh WSW -- 30.68 in1038.9 mb 0.00 in0.0 mm 0.00 in0.0 mm 0.00 in0.0 mm
10:20 AM 2.0°F-16.7°C -6.4°F-21.3°C 67% 4.0 mph WSW6.4 kmh WSW -- 30.68 in1038.9 mb 0.00 in0.0 mm 0.00 in0.0 mm 0.00 in0.0 mm
10:25 AM 2.4°F-16.4°C -5.7°F-20.9°C 68% 5.0 mph W8.0 kmh W -- 30.68 in1038.9 mb 0.00 in0.0 mm 0.00 in0.0 mm 0.00 in0.0 mm
10:30 AM 2.7°F-16.3°C -5.7°F-20.9°C 67% 9.0 mph WNW14.5 kmh WNW -- 30.68 in1038.9 mb 0.00 in0.0 mm 0.00 in0.0 mm 0.00 in0.0 mm
10:35 AM 2.8°F-16.2°C -5.6°F-20.9°C 67% 4.0 mph WSW6.4 kmh WSW -- 30.67 in1038.6 mb 0.00 in0.0 mm 0.00 in0.0 mm 0.00 in0.0 mm
10:40 AM 3.0°F-16.1°C -5.8°F-21.0°C 66% 8.0 mph WNW12.9 kmh WNW -- 30.67 in1038.6 mb 0.00 in0.0 mm 0.00 in0.0 mm 0.00 in0.0 mm
10:45 AM 3.5°F-15.8°C -5.3°F-20.7°C 66% 6.0 mph W9.7 kmh W -- 30.67 in1038.6 mb 0.00 in0.0 mm 0.00 in0.0 mm 0.00 in0.0 mm
10:50 AM 3.6°F-15.8°C -5.5°F-20.8°C 65% 4.0 mph W6.4 kmh W 10.0 mph16.1 kmh 30.68 in1038.9 mb 0.00 in0.0 mm 0.00 in0.0 mm 0.00 in0.0 mm
10:55 AM 3.8°F-15.7°C -5.6°F-20.9°C 64% 6.0 mph WSW9.7 kmh WSW 10.0 mph16.1 kmh 30.67 in1038.6 mb 0.00 in0.0 mm 0.00 in0.0 mm 0.00 in0.0 mm
11:00 AM 4.1°F-15.5°C -5.3°F-20.7°C 64% 3.0 mph WSW4.8 kmh WSW -- 30.67 in1038.6 mb 0.00 in0.0 mm 0.00 in0.0 mm 0.00 in0.0 mm
11:05 AM 4.4°F-15.3°C -5.4°F-20.8°C 63% 6.0 mph WSW9.7 kmh WSW -- 30.67 in1038.6 mb 0.00 in0.0 mm 0.00 in0.0 mm 0.00 in0.0 mm
11:10 AM 4.5°F-15.3°C -5.6°F-20.9°C 62% 6.0 mph W9.7 kmh W -- 30.68 in1038.9 mb 0.00 in0.0 mm 0.00 in0.0 mm 0.00 in0.0 mm
11:15 AM 4.6°F-15.2°C -5.2°F-20.7°C 63% 4.0 mph SW6.4 kmh SW -- 30.67 in1038.6 mb 0.00 in0.0 mm 0.00 in0.0 mm 0.00 in0.0 mm
11:20 AM 5.2°F-14.9°C -4.6°F-20.3°C 63% 8.0 mph WSW12.9 kmh WSW -- 30.67 in1038.6 mb 0.00 in0.0 mm 0.00 in0.0 mm 0.00 in0.0 mm
11:25 AM 5.0°F-15.0°C -5.1°F-20.6°C 62% 3.0 mph SW4.8 kmh SW -- 30.66 in1038.3 mb 0.00 in0.0 mm 0.00 in0.0 mm 0.00 in0.0 mm
11:30 AM 5.3°F-14.8°C -4.8°F-20.4°C 62% 5.0 mph SW8.0 kmh SW -- 30.66 in1038.3 mb 0.00 in0.0 mm 0.00 in0.0 mm 0.00 in0.0 mm
11:35 AM 5.5°F-14.7°C -4.7°F-20.4°C 62% 4.0 mph W6.4 kmh W -- 30.65 in1037.9 mb 0.00 in0.0 mm 0.00 in0.0 mm 0.00 in0.0 mm
11:40 AM 5.9°F-14.5°C -4.6°F-20.3°C 61% 2.0 mph WSW3.2 kmh WSW 9.0 mph14.5 kmh 30.65 in1037.9 mb 0.00 in0.0 mm 0.00 in0.0 mm 0.00 in0.0 mm
11:45 AM 6.1°F-14.4°C -4.4°F-20.2°C 61% 3.0 mph WSW4.8 kmh WSW 9.0 mph14.5 kmh 30.65 in1037.9 mb 0.00 in0.0 mm 0.00 in0.0 mm 0.00 in0.0 mm
11:50 AM 6.7°F-14.1°C -3.9°F-19.9°C 61% 6.0 mph WSW9.7 kmh WSW -- 30.65 in1037.9 mb 0.00 in0.0 mm 0.00 in0.0 mm 0.00 in0.0 mm
11:55 AM 6.5°F-14.2°C -4.7°F-20.4°C 59% 3.0 mph WNW4.8 kmh WNW -- 30.66 in1038.3 mb 0.00 in0.0 mm 0.00 in0.0 mm 0.00 in0.0 mm
12:00 PM 6.8°F-14.0°C -4.1°F-20.1°C 60% 3.0 mph WSW4.8 kmh WSW -- 30.66 in1038.3 mb 0.00 in0.0 mm 0.00 in0.0 mm 0.00 in0.0 mm
12:05 PM 6.9°F-13.9°C -4.7°F-20.4°C 58% 4.0 mph WSW6.4 kmh WSW -- 30.65 in1037.9 mb 0.00 in0.0 mm 0.00 in0.0 mm 0.00 in0.0 mm
12:10 PM 7.3°F-13.7°C -4.3°F-20.2°C 58% 5.0 mph WSW8.0 kmh WSW -- 30.65 in1037.9 mb 0.00 in0.0 mm 0.00 in0.0 mm 0.00 in0.0 mm
12:15 PM 7.5°F-13.6°C -4.1°F-20.1°C 58% 9.0 mph W14.5 kmh W -- 30.65 in1037.9 mb 0.00 in0.0 mm 0.00 in0.0 mm 0.00 in0.0 mm
12:20 PM 7.7°F-13.5°C -4.3°F-20.2°C 57% 2.0 mph SW3.2 kmh SW -- 30.65 in1037.9 mb 0.00 in0.0 mm 0.00 in0.0 mm 0.00 in0.0 mm
12:25 PM 8.2°F-13.2°C -3.9°F-19.9°C 57% 5.0 mph WNW8.0 kmh WNW -- 30.65 in1037.9 mb 0.00 in0.0 mm 0.00 in0.0 mm 0.00 in0.0 mm
12:30 PM 8.1°F-13.3°C -3.9°F-19.9°C 57% 7.0 mph SW11.3 kmh SW 12.0 mph19.3 kmh 30.65 in1037.9 mb 0.00 in0.0 mm 0.00 in0.0 mm 0.00 in0.0 mm
12:35 PM 8.5°F-13.1°C -3.9°F-19.9°C 56% 3.0 mph WSW4.8 kmh WSW 12.0 mph19.3 kmh 30.65 in1037.9 mb 0.00 in0.0 mm 0.00 in0.0 mm 0.00 in0.0 mm
12:40 PM 8.7°F-12.9°C -4.1°F-20.1°C 55% 6.0 mph SW9.7 kmh SW -- 30.63 in1037.3 mb 0.00 in0.0 mm 0.00 in0.0 mm 0.00 in0.0 mm
12:45 PM 9.0°F-12.8°C -3.8°F-19.9°C 55% 6.0 mph W9.7 kmh W -- 30.62 in1036.9 mb 0.00 in0.0 mm 0.00 in0.0 mm 0.00 in0.0 mm
12:50 PM 8.8°F-12.9°C -4.4°F-20.2°C 54% 6.0 mph WSW9.7 kmh WSW -- 30.62 in1036.9 mb 0.00 in0.0 mm 0.00 in0.0 mm 0.00 in0.0 mm
12:55 PM 8.9°F-12.8°C -4.3°F-20.2°C 54% 6.0 mph W9.7 kmh W -- 30.62 in1036.9 mb 0.00 in0.0 mm 0.00 in0.0 mm 0.00 in0.0 mm
01:00 PM 9.2°F-12.7°C -4.0°F-20.0°C 54% 4.0 mph WSW6.4 kmh WSW -- 30.61 in1036.6 mb 0.00 in0.0 mm 0.00 in0.0 mm 0.00 in0.0 mm
01:05 PM 9.8°F-12.3°C -3.5°F-19.7°C 54% 8.0 mph W12.9 kmh W -- 30.60 in1036.2 mb 0.00 in0.0 mm 0.00 in0.0 mm 0.00 in0.0 mm
01:10 PM 9.8°F-12.3°C -3.9°F-19.9°C 53% 4.0 mph SW6.4 kmh SW -- 30.61 in1036.6 mb 0.00 in0.0 mm 0.00 in0.0 mm 0.00 in0.0 mm
01:15 PM 9.9°F-12.3°C -4.2°F-20.1°C 52% 9.0 mph WNW14.5 kmh WNW -- 30.61 in1036.6 mb 0.00 in0.0 mm 0.00 in0.0 mm 0.00 in0.0 mm
01:20 PM 10.1°F-12.2°C -3.6°F-19.8°C 53% 7.0 mph WNW11.3 kmh WNW 11.0 mph17.7 kmh 30.61 in1036.6 mb 0.00 in0.0 mm 0.00 in0.0 mm 0.00 in0.0 mm
01:25 PM 10.2°F-12.1°C -4.3°F-20.2°C 51% 5.0 mph SW8.0 kmh SW 11.0 mph17.7 kmh 30.60 in1036.2 mb 0.00 in0.0 mm 0.00 in0.0 mm 0.00 in0.0 mm
01:30 PM 10.5°F-11.9°C -3.6°F-19.8°C 52% 10.0 mph WSW16.1 kmh WSW -- 30.59 in1035.9 mb 0.00 in0.0 mm 0.00 in0.0 mm 0.00 in0.0 mm
01:35 PM 10.4°F-12.0°C -4.5°F-20.3°C 50% 6.0 mph NW9.7 kmh NW -- 30.59 in1035.9 mb 0.00 in0.0 mm 0.00 in0.0 mm 0.00 in0.0 mm
01:40 PM 11.0°F-11.7°C -4.0°F-20.0°C 50% 5.0 mph SW8.0 kmh SW -- 30.59 in1035.9 mb 0.00 in0.0 mm 0.00 in0.0 mm 0.00 in0.0 mm
01:45 PM 11.3°F-11.5°C -2.9°F-19.4°C 52% 6.0 mph WNW9.7 kmh WNW -- 30.59 in1035.9 mb 0.00 in0.0 mm 0.00 in0.0 mm 0.00 in0.0 mm
01:50 PM 11.5°F-11.4°C -3.1°F-19.5°C 51% 5.0 mph WSW8.0 kmh WSW -- 30.59 in1035.9 mb 0.00 in0.0 mm 0.00 in0.0 mm 0.00 in0.0 mm
01:55 PM 11.8°F-11.2°C -3.2°F-19.6°C 50% 11.0 mph W17.7 kmh W -- 30.59 in1035.9 mb 0.00 in0.0 mm 0.00 in0.0 mm 0.00 in0.0 mm
02:00 PM 11.7°F-11.3°C -3.3°F-19.6°C 50% 7.0 mph WNW11.3 kmh WNW -- 30.58 in1035.6 mb 0.00 in0.0 mm 0.00 in0.0 mm 0.00 in0.0 mm
02:05 PM 11.9°F-11.2°C -3.1°F-19.5°C 50% 7.0 mph W11.3 kmh W -- 30.58 in1035.6 mb 0.00 in0.0 mm 0.00 in0.0 mm 0.00 in0.0 mm
02:10 PM 12.2°F-11.0°C -2.8°F-19.3°C 50% 5.0 mph WSW8.0 kmh WSW 12.0 mph19.3 kmh 30.57 in1035.2 mb 0.00 in0.0 mm 0.00 in0.0 mm 0.00 in0.0 mm
02:15 PM 12.3°F-10.9°C -2.8°F-19.3°C 50% 1.0 mph SW1.6 kmh SW 12.0 mph19.3 kmh 30.57 in1035.2 mb 0.00 in0.0 mm 0.00 in0.0 mm 0.00 in0.0 mm
02:20 PM 12.7°F-10.7°C -2.4°F-19.1°C 50% 5.0 mph W8.0 kmh W -- 30.57 in1035.2 mb 0.00 in0.0 mm 0.00 in0.0 mm 0.00 in0.0 mm
02:25 PM 12.6°F-10.8°C -2.9°F-19.4°C 49% 6.0 mph W9.7 kmh W -- 30.57 in1035.2 mb 0.00 in0.0 mm 0.00 in0.0 mm 0.00 in0.0 mm
02:30 PM 12.8°F-10.7°C -2.3°F-19.1°C 50% 2.0 mph WSW3.2 kmh WSW -- 30.56 in1034.9 mb 0.00 in0.0 mm 0.00 in0.0 mm 0.00 in0.0 mm
02:35 PM 13.1°F-10.5°C -2.4°F-19.1°C 49% 4.0 mph WSW6.4 kmh WSW -- 30.56 in1034.9 mb 0.00 in0.0 mm 0.00 in0.0 mm 0.00 in0.0 mm
02:40 PM 13.2°F-10.4°C -2.8°F-19.3°C 48% 3.0 mph SW4.8 kmh SW -- 30.56 in1034.9 mb 0.00 in0.0 mm 0.00 in0.0 mm 0.00 in0.0 mm
02:45 PM 13.2°F-10.4°C -2.8°F-19.3°C 48% 4.0 mph WSW6.4 kmh WSW -- 30.56 in1034.9 mb 0.00 in0.0 mm 0.00 in0.0 mm 0.00 in0.0 mm
02:50 PM 13.4°F-10.3°C -2.6°F-19.2°C 48% 4.0 mph WSW6.4 kmh WSW -- 30.55 in1034.5 mb 0.00 in0.0 mm 0.00 in0.0 mm 0.00 in0.0 mm
02:55 PM 13.3°F-10.4°C -2.7°F-19.3°C 48% 7.0 mph WSW11.3 kmh WSW -- 30.55 in1034.5 mb 0.00 in0.0 mm 0.00 in0.0 mm 0.00 in0.0 mm
03:00 PM 13.5°F-10.3°C -2.5°F-19.2°C 48% 2.0 mph WSW3.2 kmh WSW 9.0 mph14.5 kmh 30.54 in1034.2 mb 0.00 in0.0 mm 0.00 in0.0 mm 0.00 in0.0 mm
03:05 PM 13.9°F-10.1°C -2.1°F-18.9°C 48% 2.0 mph SW3.2 kmh SW 9.0 mph14.5 kmh 30.54 in1034.2 mb 0.00 in0.0 mm 0.00 in0.0 mm 0.00 in0.0 mm
03:10 PM 14.1°F-9.9°C -3.3°F-19.6°C 45% 3.0 mph SW4.8 kmh SW -- 30.54 in1034.2 mb 0.00 in0.0 mm 0.00 in0.0 mm 0.00 in0.0 mm
03:15 PM 14.1°F-9.9°C -2.8°F-19.3°C 46% 1.0 mph WSW1.6 kmh WSW -- 30.54 in1034.2 mb 0.00 in0.0 mm 0.00 in0.0 mm 0.00 in0.0 mm
03:20 PM 14.1°F-9.9°C -3.3°F-19.6°C 45% 4.0 mph WSW6.4 kmh WSW -- 30.54 in1034.2 mb 0.00 in0.0 mm 0.00 in0.0 mm 0.00 in0.0 mm
03:25 PM 14.0°F-10.0°C -3.4°F-19.7°C 45% 3.0 mph WSW4.8 kmh WSW -- 30.54 in1034.2 mb 0.00 in0.0 mm 0.00 in0.0 mm 0.00 in0.0 mm
03:30 PM 14.1°F-9.9°C -3.3°F-19.6°C 45% 5.0 mph W8.0 kmh W -- 30.53 in1033.9 mb 0.00 in0.0 mm 0.00 in0.0 mm 0.00 in0.0 mm
03:35 PM 14.6°F-9.7°C -2.8°F-19.3°C 45% 7.0 mph WSW11.3 kmh WSW -- 30.53 in1033.9 mb 0.00 in0.0 mm 0.00 in0.0 mm 0.00 in0.0 mm
03:40 PM 14.5°F-9.7°C -2.9°F-19.4°C 45% 6.0 mph WSW9.7 kmh WSW -- 30.53 in1033.9 mb 0.00 in0.0 mm 0.00 in0.0 mm 0.00 in0.0 mm
03:45 PM 14.8°F-9.6°C -2.2°F-19.0°C 46% 4.0 mph W6.4 kmh W -- 30.52 in1033.5 mb 0.00 in0.0 mm 0.00 in0.0 mm 0.00 in0.0 mm
03:50 PM 15.0°F-9.4°C -2.9°F-19.4°C 44% 7.0 mph WSW11.3 kmh WSW 9.0 mph14.5 kmh 30.52 in1033.5 mb 0.00 in0.0 mm 0.00 in0.0 mm 0.00 in0.0 mm
03:55 PM 15.3°F-9.3°C -3.1°F-19.5°C 43% 3.0 mph SW4.8 kmh SW 9.0 mph14.5 kmh 30.52 in1033.5 mb 0.00 in0.0 mm 0.00 in0.0 mm 0.00 in0.0 mm
04:00 PM 15.3°F-9.3°C -3.1°F-19.5°C 43% 3.0 mph WSW4.8 kmh WSW -- 30.52 in1033.5 mb 0.00 in0.0 mm 0.00 in0.0 mm 0.00 in0.0 mm
04:05 PM 15.4°F-9.2°C -3.1°F-19.5°C 43% 4.0 mph SW6.4 kmh SW -- 30.51 in1033.2 mb 0.00 in0.0 mm 0.00 in0.0 mm 0.00 in0.0 mm
04:10 PM 15.7°F-9.1°C -2.3°F-19.1°C 44% 3.0 mph WNW4.8 kmh WNW -- 30.51 in1033.2 mb 0.00 in0.0 mm 0.00 in0.0 mm 0.00 in0.0 mm
04:15 PM 15.8°F-9.0°C -2.2°F-19.0°C 44% 3.0 mph SW4.8 kmh SW -- 30.51 in1033.2 mb 0.00 in0.0 mm 0.00 in0.0 mm 0.00 in0.0 mm
04:20 PM 16.2°F-8.8°C -1.8°F-18.8°C 44% 2.0 mph W3.2 kmh W -- 30.51 in1033.2 mb 0.00 in0.0 mm 0.00 in0.0 mm 0.00 in0.0 mm
04:25 PM 16.3°F-8.7°C -1.7°F-18.7°C 44% 2.0 mph SW3.2 kmh SW -- 30.51 in1033.2 mb 0.00 in0.0 mm 0.00 in0.0 mm 0.00 in0.0 mm
04:30 PM 16.1°F-8.8°C -2.9°F-19.4°C 42% 5.0 mph W8.0 kmh W -- 30.51 in1033.2 mb 0.00 in0.0 mm 0.00 in0.0 mm 0.00 in0.0 mm
04:35 PM 15.8°F-9.0°C -2.7°F-19.3°C 43% 3.0 mph WSW4.8 kmh WSW -- 30.51 in1033.2 mb 0.00 in0.0 mm 0.00 in0.0 mm 0.00 in0.0 mm
04:40 PM 16.0°F-8.9°C -2.5°F-19.2°C 43% 4.0 mph WSW6.4 kmh WSW 9.0 mph14.5 kmh 30.51 in1033.2 mb 0.00 in0.0 mm 0.00 in0.0 mm 0.00 in0.0 mm
04:45 PM 16.3°F-8.7°C -2.2°F-19.0°C 43% 3.0 mph WSW4.8 kmh WSW 9.0 mph14.5 kmh 30.51 in1033.2 mb 0.00 in0.0 mm 0.00 in0.0 mm 0.00 in0.0 mm
04:50 PM 16.5°F-8.6°C -2.0°F-18.9°C 43% 4.0 mph SW6.4 kmh SW -- 30.51 in1033.2 mb 0.00 in0.0 mm 0.00 in0.0 mm 0.00 in0.0 mm
04:55 PM 16.0°F-8.9°C -3.0°F-19.4°C 42% 4.0 mph WSW6.4 kmh WSW -- 30.51 in1033.2 mb 0.00 in0.0 mm 0.00 in0.0 mm 0.00 in0.0 mm
05:00 PM 15.8°F-9.0°C -2.7°F-19.3°C 43% 3.0 mph SW4.8 kmh SW -- 30.51 in1033.2 mb 0.00 in0.0 mm 0.00 in0.0 mm 0.00 in0.0 mm
05:05 PM 15.8°F-9.0°C -2.2°F-19.0°C 44% 4.0 mph SW6.4 kmh SW -- 30.51 in1033.2 mb 0.00 in0.0 mm 0.00 in0.0 mm 0.00 in0.0 mm
05:10 PM 15.9°F-8.9°C -2.1°F-18.9°C 44% 6.0 mph WSW9.7 kmh WSW -- 30.51 in1033.2 mb 0.00 in0.0 mm 0.00 in0.0 mm 0.00 in0.0 mm
05:15 PM 16.1°F-8.8°C -1.9°F-18.8°C 44% 3.0 mph W4.8 kmh W -- 30.50 in1032.8 mb 0.00 in0.0 mm 0.00 in0.0 mm 0.00 in0.0 mm
05:20 PM 16.2°F-8.8°C -1.8°F-18.8°C 44% 1.0 mph WSW1.6 kmh WSW -- 30.50 in1032.8 mb 0.00 in0.0 mm 0.00 in0.0 mm 0.00 in0.0 mm
05:25 PM 16.4°F-8.7°C -1.7°F-18.7°C 44% 3.0 mph WSW4.8 kmh WSW -- 30.50 in1032.8 mb 0.00 in0.0 mm 0.00 in0.0 mm 0.00 in0.0 mm
05:30 PM 16.4°F-8.7°C -2.1°F-18.9°C 43% 2.0 mph WSW3.2 kmh WSW 7.0 mph11.3 kmh 30.50 in1032.8 mb 0.00 in0.0 mm 0.00 in0.0 mm 0.00 in0.0 mm
05:35 PM 16.4°F-8.7°C -2.1°F-18.9°C 43% 4.0 mph SW6.4 kmh SW 7.0 mph11.3 kmh 30.49 in1032.5 mb 0.00 in0.0 mm 0.00 in0.0 mm 0.00 in0.0 mm
05:40 PM 16.3°F-8.7°C -2.2°F-19.0°C 43% 4.0 mph SW6.4 kmh SW -- 30.49 in1032.5 mb 0.00 in0.0 mm 0.00 in0.0 mm 0.00 in0.0 mm
05:45 PM 16.2°F-8.8°C -1.8°F-18.8°C 44% 3.0 mph SW4.8 kmh SW -- 30.49 in1032.5 mb 0.00 in0.0 mm 0.00 in0.0 mm 0.00 in0.0 mm
05:50 PM 16.1°F-8.8°C -1.9°F-18.8°C 44% 3.0 mph WSW4.8 kmh WSW -- 30.49 in1032.5 mb 0.00 in0.0 mm 0.00 in0.0 mm 0.00 in0.0 mm
05:55 PM 15.9°F-8.9°C -2.1°F-18.9°C 44% 2.0 mph SW3.2 kmh SW -- 30.49 in1032.5 mb 0.00 in0.0 mm 0.00 in0.0 mm 0.00 in0.0 mm
06:00 PM 15.8°F-9.0°C -2.7°F-19.3°C 43% 1.0 mph SW1.6 kmh SW -- 30.49 in1032.5 mb 0.00 in0.0 mm 0.00 in0.0 mm 0.00 in0.0 mm
06:05 PM 15.6°F-9.1°C -2.9°F-19.4°C 43% 3.0 mph WSW4.8 kmh WSW -- 30.48 in1032.2 mb 0.00 in0.0 mm 0.00 in0.0 mm 0.00 in0.0 mm
06:10 PM 15.5°F-9.2°C -2.5°F-19.2°C 44% 3.0 mph WSW4.8 kmh WSW -- 30.48 in1032.2 mb 0.00 in0.0 mm 0.00 in0.0 mm 0.00 in0.0 mm
06:15 PM 15.4°F-9.2°C -2.6°F-19.2°C 44% 3.0 mph WSW4.8 kmh WSW -- 30.48 in1032.2 mb 0.00 in0.0 mm 0.00 in0.0 mm 0.00 in0.0 mm
06:20 PM 15.4°F-9.2°C -2.6°F-19.2°C 44% 2.0 mph WSW3.2 kmh WSW 6.0 mph9.7 kmh 30.48 in1032.2 mb 0.00 in0.0 mm 0.00 in0.0 mm 0.00 in0.0 mm
06:25 PM 15.3°F-9.3°C -2.2°F-19.0°C 45% 2.0 mph WSW3.2 kmh WSW 6.0 mph9.7 kmh 30.47 in1031.8 mb 0.00 in0.0 mm 0.00 in0.0 mm 0.00 in0.0 mm
06:30 PM 15.3°F-9.3°C -2.2°F-19.0°C 45% 2.0 mph SW3.2 kmh SW -- 30.47 in1031.8 mb 0.00 in0.0 mm 0.00 in0.0 mm 0.00 in0.0 mm
06:35 PM 15.3°F-9.3°C -2.2°F-19.0°C 45% 6.0 mph SW9.7 kmh SW -- 30.47 in1031.8 mb 0.00 in0.0 mm 0.00 in0.0 mm 0.00 in0.0 mm
06:40 PM 15.3°F-9.3°C -2.2°F-19.0°C 45% 3.0 mph SW4.8 kmh SW -- 30.47 in1031.8 mb 0.00 in0.0 mm 0.00 in0.0 mm 0.00 in0.0 mm
06:45 PM 15.3°F-9.3°C -1.7°F-18.7°C 46% Calm Calm -- 30.47 in1031.8 mb 0.00 in0.0 mm 0.00 in0.0 mm 0.00 in0.0 mm
06:50 PM 15.3°F-9.3°C -1.3°F-18.5°C 47% 2.0 mph SW3.2 kmh SW -- 30.47 in1031.8 mb 0.00 in0.0 mm 0.00 in0.0 mm 0.00 in0.0 mm
06:55 PM 15.4°F-9.2°C -1.6°F-18.7°C 46% Calm Calm -- 30.47 in1031.8 mb 0.00 in0.0 mm 0.00 in0.0 mm 0.00 in0.0 mm
07:00 PM 15.4°F-9.2°C -1.2°F-18.4°C 47% Calm Calm -- 30.47 in1031.8 mb 0.00 in0.0 mm 0.00 in0.0 mm 0.00 in0.0 mm
07:05 PM 15.4°F-9.2°C -1.6°F-18.7°C 46% Calm Calm -- 30.46 in1031.5 mb 0.00 in0.0 mm 0.00 in0.0 mm 0.00 in0.0 mm
07:10 PM 15.5°F-9.2°C -1.1°F-18.4°C 47% Calm Calm 3.0 mph4.8 kmh 30.46 in1031.5 mb 0.00 in0.0 mm 0.00 in0.0 mm 0.00 in0.0 mm
07:15 PM 15.5°F-9.2°C -0.2°F-17.9°C 49% Calm Calm 3.0 mph4.8 kmh 30.46 in1031.5 mb 0.00 in0.0 mm 0.00 in0.0 mm 0.00 in0.0 mm
07:20 PM 15.4°F-9.2°C -0.3°F-17.9°C 49% 2.0 mph SW3.2 kmh SW -- 30.46 in1031.5 mb 0.00 in0.0 mm 0.00 in0.0 mm 0.00 in0.0 mm
07:25 PM 15.3°F-9.3°C -0.8°F-18.2°C 48% 3.0 mph SW4.8 kmh SW -- 30.45 in1031.2 mb 0.00 in0.0 mm 0.00 in0.0 mm 0.00 in0.0 mm
07:30 PM 15.3°F-9.3°C -0.8°F-18.2°C 48% 2.0 mph SW3.2 kmh SW -- 30.45 in1031.2 mb 0.00 in0.0 mm 0.00 in0.0 mm 0.00 in0.0 mm
07:35 PM 15.3°F-9.3°C -0.4°F-18.0°C 49% Calm Calm -- 30.45 in1031.2 mb 0.00 in0.0 mm 0.00 in0.0 mm 0.00 in0.0 mm
07:40 PM 15.3°F-9.3°C -0.4°F-18.0°C 49% 1.0 mph SW1.6 kmh SW -- 30.45 in1031.2 mb 0.00 in0.0 mm 0.00 in0.0 mm 0.00 in0.0 mm
07:45 PM 15.3°F-9.3°C 0.0°F-17.8°C 50% Calm Calm -- 30.45 in1031.2 mb 0.00 in0.0 mm 0.00 in0.0 mm 0.00 in0.0 mm
07:50 PM 15.3°F-9.3°C 0.0°F-17.8°C 50% Calm Calm -- 30.44 in1030.8 mb 0.00 in0.0 mm 0.00 in0.0 mm 0.00 in0.0 mm
07:55 PM 15.3°F-9.3°C 0.0°F-17.8°C 50% Calm Calm -- 30.44 in1030.8 mb 0.00 in0.0 mm 0.00 in0.0 mm 0.00 in0.0 mm
08:00 PM 15.4°F-9.2°C 0.1°F-17.7°C 50% Calm Calm -- 30.45 in1031.2 mb 0.00 in0.0 mm 0.00 in0.0 mm 0.00 in0.0 mm
08:05 PM 15.4°F-9.2°C 0.1°F-17.7°C 50% Calm Calm -- 30.44 in1030.8 mb 0.00 in0.0 mm 0.00 in0.0 mm 0.00 in0.0 mm
08:10 PM 15.5°F-9.2°C 0.2°F-17.7°C 50% Calm Calm -- 30.44 in1030.8 mb 0.00 in0.0 mm 0.00 in0.0 mm 0.00 in0.0 mm
08:15 PM 15.5°F-9.2°C 0.6°F-17.4°C 51% Calm Calm -- 30.44 in1030.8 mb 0.00 in0.0 mm 0.00 in0.0 mm 0.00 in0.0 mm
08:20 PM 15.6°F-9.1°C 0.3°F-17.6°C 50% Calm Calm -- 30.44 in1030.8 mb 0.00 in0.0 mm 0.00 in0.0 mm 0.00 in0.0 mm
08:25 PM 15.6°F-9.1°C 0.7°F-17.4°C 51% Calm Calm -- 30.44 in1030.8 mb 0.00 in0.0 mm 0.00 in0.0 mm 0.00 in0.0 mm
08:30 PM 15.7°F-9.1°C 1.2°F-17.1°C 52% 2.0 mph SSE3.2 kmh SSE -- 30.44 in1030.8 mb 0.00 in0.0 mm 0.00 in0.0 mm 0.00 in0.0 mm
08:35 PM 15.7°F-9.1°C 1.6°F-16.9°C 53% 3.0 mph S4.8 kmh S -- 30.44 in1030.8 mb 0.00 in0.0 mm 0.00 in0.0 mm 0.00 in0.0 mm
08:40 PM 15.8°F-9.0°C 1.7°F-16.8°C 53% Calm Calm -- 30.43 in1030.5 mb 0.00 in0.0 mm 0.00 in0.0 mm 0.00 in0.0 mm
08:45 PM 15.9°F-8.9°C 2.2°F-16.6°C 54% 1.0 mph S1.6 kmh S -- 30.43 in1030.5 mb 0.00 in0.0 mm 0.00 in0.0 mm 0.00 in0.0 mm
08:50 PM 15.9°F-8.9°C 2.2°F-16.6°C 54% 3.0 mph S4.8 kmh S 4.0 mph6.4 kmh 30.43 in1030.5 mb 0.00 in0.0 mm 0.00 in0.0 mm 0.00 in0.0 mm
08:55 PM 16.0°F-8.9°C 1.9°F-16.7°C 53% 3.0 mph S4.8 kmh S 4.0 mph6.4 kmh 30.43 in1030.5 mb 0.00 in0.0 mm 0.00 in0.0 mm 0.00 in0.0 mm
09:00 PM 16.0°F-8.9°C 1.1°F-17.2°C 51% 3.0 mph SSW4.8 kmh SSW -- 30.43 in1030.5 mb 0.00 in0.0 mm 0.00 in0.0 mm 0.00 in0.0 mm
09:05 PM 16.0°F-8.9°C 1.1°F-17.2°C 51% 2.0 mph SW3.2 kmh SW -- 30.43 in1030.5 mb 0.00 in0.0 mm 0.00 in0.0 mm 0.00 in0.0 mm
09:10 PM 16.1°F-8.8°C 0.8°F-17.3°C 50% 2.0 mph SW3.2 kmh SW -- 30.43 in1030.5 mb 0.00 in0.0 mm 0.00 in0.0 mm 0.00 in0.0 mm
09:15 PM 16.1°F-8.8°C 1.2°F-17.1°C 51% 3.0 mph SW4.8 kmh SW -- 30.43 in1030.5 mb 0.00 in0.0 mm 0.00 in0.0 mm 0.00 in0.0 mm
09:20 PM 16.1°F-8.8°C 1.2°F-17.1°C 51% 3.0 mph SW4.8 kmh SW -- 30.43 in1030.5 mb 0.00 in0.0 mm 0.00 in0.0 mm 0.00 in0.0 mm
09:25 PM 16.1°F-8.8°C 1.2°F-17.1°C 51% 1.0 mph SW1.6 kmh SW -- 30.43 in1030.5 mb 0.00 in0.0 mm 0.00 in0.0 mm 0.00 in0.0 mm
09:30 PM 16.1°F-8.8°C 1.2°F-17.1°C 51% 2.0 mph SW3.2 kmh SW -- 30.43 in1030.5 mb 0.00 in0.0 mm 0.00 in0.0 mm 0.00 in0.0 mm
09:35 PM 16.1°F-8.8°C 1.2°F-17.1°C 51% 3.0 mph SW4.8 kmh SW -- 30.42 in1030.1 mb 0.00 in0.0 mm 0.00 in0.0 mm 0.00 in0.0 mm
09:40 PM 16.1°F-8.8°C 1.2°F-17.1°C 51% 3.0 mph SW4.8 kmh SW 9.0 mph14.5 kmh 30.42 in1030.1 mb 0.00 in0.0 mm 0.00 in0.0 mm 0.00 in0.0 mm
09:45 PM 16.2°F-8.8°C 1.7°F-16.8°C 52% 4.0 mph SW6.4 kmh SW 9.0 mph14.5 kmh 30.42 in1030.1 mb 0.00 in0.0 mm 0.00 in0.0 mm 0.00 in0.0 mm
09:50 PM 16.2°F-8.8°C 1.7°F-16.8°C 52% 2.0 mph SW3.2 kmh SW -- 30.42 in1030.1 mb 0.00 in0.0 mm 0.00 in0.0 mm 0.00 in0.0 mm
09:55 PM 16.2°F-8.8°C 2.1°F-16.6°C 53% 1.0 mph WSW1.6 kmh WSW -- 30.42 in1030.1 mb 0.00 in0.0 mm 0.00 in0.0 mm 0.00 in0.0 mm
10:00 PM 16.2°F-8.8°C 2.1°F-16.6°C 53% 3.0 mph WSW4.8 kmh WSW -- 30.42 in1030.1 mb 0.00 in0.0 mm 0.00 in0.0 mm 0.00 in0.0 mm
10:05 PM 16.2°F-8.8°C 2.1°F-16.6°C 53% 3.0 mph WSW4.8 kmh WSW -- 30.42 in1030.1 mb 0.00 in0.0 mm 0.00 in0.0 mm 0.00 in0.0 mm
10:10 PM 16.2°F-8.8°C 2.1°F-16.6°C 53% 3.0 mph SW4.8 kmh SW -- 30.42 in1030.1 mb 0.00 in0.0 mm 0.00 in0.0 mm 0.00 in0.0 mm
10:15 PM 16.2°F-8.8°C 2.1°F-16.6°C 53% Calm Calm -- 30.42 in1030.1 mb 0.00 in0.0 mm 0.00 in0.0 mm 0.00 in0.0 mm
10:20 PM 16.3°F-8.7°C 2.6°F-16.3°C 54% 1.0 mph WSW1.6 kmh WSW -- 30.42 in1030.1 mb 0.00 in0.0 mm 0.00 in0.0 mm 0.00 in0.0 mm
10:25 PM 16.3°F-8.7°C 2.6°F-16.3°C 54% 3.0 mph SW4.8 kmh SW -- 30.42 in1030.1 mb 0.00 in0.0 mm 0.00 in0.0 mm 0.00 in0.0 mm
10:30 PM 16.3°F-8.7°C 2.6°F-16.3°C 54% 3.0 mph SW4.8 kmh SW 5.0 mph8.0 kmh 30.42 in1030.1 mb 0.00 in0.0 mm 0.00 in0.0 mm 0.00 in0.0 mm
10:35 PM 16.4°F-8.7°C 3.1°F-16.1°C 55% 2.0 mph SW3.2 kmh SW 5.0 mph8.0 kmh 30.41 in1029.8 mb 0.00 in0.0 mm 0.00 in0.0 mm 0.00 in0.0 mm
10:40 PM 16.3°F-8.7°C 3.0°F-16.1°C 55% 1.0 mph SW1.6 kmh SW -- 30.41 in1029.8 mb 0.00 in0.0 mm 0.00 in0.0 mm 0.00 in0.0 mm
10:45 PM 16.3°F-8.7°C 3.4°F-15.9°C 56% 4.0 mph SW6.4 kmh SW -- 30.41 in1029.8 mb 0.00 in0.0 mm 0.00 in0.0 mm 0.00 in0.0 mm
10:50 PM 16.3°F-8.7°C 3.8°F-15.7°C 57% 4.0 mph SW6.4 kmh SW -- 30.41 in1029.8 mb 0.00 in0.0 mm 0.00 in0.0 mm 0.00 in0.0 mm
10:55 PM 16.4°F-8.7°C 3.9°F-15.6°C 57% 2.0 mph SW3.2 kmh SW -- 30.41 in1029.8 mb 0.00 in0.0 mm 0.00 in0.0 mm 0.00 in0.0 mm
11:00 PM 16.3°F-8.7°C 4.1°F-15.5°C 58% 4.0 mph SW6.4 kmh SW -- 30.40 in1029.5 mb 0.00 in0.0 mm 0.00 in0.0 mm 0.00 in0.0 mm
11:05 PM 16.3°F-8.7°C 4.1°F-15.5°C 58% Calm Calm -- 30.40 in1029.5 mb 0.00 in0.0 mm 0.00 in0.0 mm 0.00 in0.0 mm
11:10 PM 16.3°F-8.7°C 4.5°F-15.3°C 59% 1.0 mph SW1.6 kmh SW -- 30.40 in1029.5 mb 0.00 in0.0 mm 0.00 in0.0 mm 0.00 in0.0 mm
11:15 PM 16.4°F-8.7°C 4.6°F-15.2°C 59% 1.0 mph WSW1.6 kmh WSW -- 30.40 in1029.5 mb 0.00 in0.0 mm 0.00 in0.0 mm 0.00 in0.0 mm
11:20 PM 16.4°F-8.7°C 5.0°F-15.0°C 60% 4.0 mph SW6.4 kmh SW 7.0 mph11.3 kmh 30.40 in1029.5 mb 0.00 in0.0 mm 0.00 in0.0 mm 0.00 in0.0 mm
11:25 PM 16.5°F-8.6°C 5.1°F-14.9°C 60% 2.0 mph SW3.2 kmh SW 7.0 mph11.3 kmh 30.39 in1029.1 mb 0.00 in0.0 mm 0.00 in0.0 mm 0.00 in0.0 mm
11:30 PM 16.5°F-8.6°C 5.1°F-14.9°C 60% 1.0 mph SW1.6 kmh SW -- 30.39 in1029.1 mb 0.00 in0.0 mm 0.00 in0.0 mm 0.00 in0.0 mm
11:35 PM 16.5°F-8.6°C 5.4°F-14.8°C 61% 2.0 mph SW3.2 kmh SW -- 30.39 in1029.1 mb 0.00 in0.0 mm 0.00 in0.0 mm 0.00 in0.0 mm
11:40 PM 16.6°F-8.6°C 5.5°F-14.7°C 61% 2.0 mph SW3.2 kmh SW -- 30.39 in1029.1 mb 0.00 in0.0 mm 0.00 in0.0 mm 0.00 in0.0 mm
11:45 PM 16.6°F-8.6°C 5.9°F-14.5°C 62% 3.0 mph SW4.8 kmh SW -- 30.38 in1028.8 mb 0.00 in0.0 mm 0.00 in0.0 mm 0.00 in0.0 mm
11:50 PM 16.6°F-8.6°C 6.2°F-14.3°C 63% 5.0 mph SW8.0 kmh SW -- 30.38 in1028.8 mb 0.00 in0.0 mm 0.00 in0.0 mm 0.00 in0.0 mm
11:55 PM 16.6°F-8.6°C 6.6°F-14.1°C 64% 4.0 mph SW6.4 kmh SW -- 30.38 in1028.8 mb 0.00 in0.0 mm 0.00 in0.0 mm 0.00 in0.0 mm